Time;durP1;ratioP1;P1;durP2;ratioP2;P2;SDS_P1;SDS_P2;PMS_P1;PMS_P2;Temp;Humidity;BMP_temperature;BMP_pressure;BME280_temperature;BME280_humidity;BME280_pressure;Samples;Min_cycle;Max_cycle;Signal;HPM_P1;HPM_P2
2023/09/16 00:00:42;;;;;;;;;;;;;;;8.14;100.00;99421.03;5012509;28;19976;-81
2023/09/16 00:03:07;;;;;;;;;;;;;;;8.18;100.00;99415.59;5010389;28;20356;-83
2023/09/16 00:05:32;;;;;;;;;;;;;;;8.05;100.00;99424.88;4993908;28;19917;-88
2023/09/16 00:07:57;;;;;;;;;;;;;;;8.13;100.00;99427.22;5011919;28;19922;-88
2023/09/16 00:10:22;;;;;;;;;;;;;;;8.19;100.00;99414.66;4994320;28;20182;-79
2023/09/16 00:12:48;;;;;;;;;;;;;;;8.19;100.00;99412.00;5010238;28;20008;-81
2023/09/16 05:24:16;;;;;;;;;;;;;;;7.44;100.00;99384.06;5033537;28;19932;-83
2023/09/16 05:26:42;;;;;;;;;;;;;;;7.52;100.00;99380.28;5035148;28;19921;-83
2023/09/16 05:29:07;;;;;;;;;;;;;;;7.54;100.00;99375.81;5033759;28;20371;-84
2023/09/16 05:31:32;;;;;;;;;;;;;;;7.57;100.00;99380.97;5033727;28;19918;-83
2023/09/16 05:33:58;;;;;;;;;;;;;;;7.57;100.00;99375.69;5033677;28;19980;-83
2023/09/16 05:36:24;;;;;;;;;;;;;;;7.58;100.00;99373.00;5033460;28;19917;-83
2023/09/16 05:38:49;;;;;;;;;;;;;;;7.57;100.00;99379.19;5033611;28;20398;-84
2023/09/16 05:41:14;;;;;;;;;;;;;;;7.61;100.00;99366.75;5049805;28;19917;-83
2023/09/16 05:43:39;;;;;;;;;;;;;;;7.66;100.00;99379.75;5032807;28;19920;-83
2023/09/16 05:46:06;;;;;;;;;;;;;;;7.66;100.00;99375.34;5034411;28;19917;-83
2023/09/16 05:48:31;;;;;;;;;;;;;;;7.78;100.00;99376.66;5034632;28;19917;-83
2023/09/16 05:50:57;;;;;;;;;;;;;;;7.89;100.00;99374.47;5029026;28;19925;-83
2023/09/16 05:53:23;;;;;;;;;;;;;;;7.95;100.00;99389.22;5033205;28;19921;-83
2023/09/16 05:55:48;;;;;;;;;;;;;;;8.02;100.00;99381.94;5033316;28;19918;-83
2023/09/16 05:58:13;;;;;;;;;;;;;;;7.97;100.00;99380.31;5034318;28;20326;-83
2023/09/16 06:00:39;;;;;;;;;;;;;;;8.03;100.00;99388.94;5033185;28;20335;-83
2023/09/16 06:03:04;;;;;;;;;;;;;;;8.03;100.00;99388.94;5034351;28;19952;-83
2023/09/16 06:05:30;;;;;;;;;;;;;;;8.10;100.00;99380.69;5034329;28;19921;-83
2023/09/16 06:07:55;;;;;;;;;;;;;;;8.15;100.00;99376.13;5031925;28;20421;-82
2023/09/16 06:10:20;;;;;;;;;;;;;;;8.17;100.00;99378.69;5032913;28;20019;-86
2023/09/16 06:12:46;;;;;;;;;;;;;;;8.15;100.00;99372.59;5034243;28;19976;-83
2023/09/16 06:15:11;;;;;;;;;;;;;;;8.18;100.00;99373.34;5032987;28;20447;-83
2023/09/16 06:17:37;;;;;;;;;;;;;;;8.26;100.00;99374.81;5034181;28;19988;-84
2023/09/16 06:20:02;;;;;;;;;;;;;;;8.26;100.00;99369.53;5032595;28;19952;-83
2023/09/16 06:22:27;;;;;;;;;;;;;;;8.33;100.00;99376.31;5026586;28;19921;-83
2023/09/16 06:24:53;;;;;;;;;;;;;;;8.31;100.00;99378.13;5033940;28;19917;-84
2023/09/16 06:27:18;;;;;;;;;;;;;;;8.39;100.00;99381.31;5033884;28;19921;-83
2023/09/16 06:29:46;;;;;;;;;;;;;;;8.41;100.00;99383.88;5033962;28;20004;-83
2023/09/16 06:32:11;;;;;;;;;;;;;;;8.44;100.00;99391.72;5031859;28;19961;-83
2023/09/16 06:34:37;;;;;;;;;;;;;;;8.42;100.00;99380.34;5033686;28;19964;-83
2023/09/16 06:37:05;;;;;;;;;;;;;;;8.47;100.00;99394.25;5032374;28;19921;-83
2023/09/16 06:39:30;;;;;;;;;;;;;;;8.43;100.00;99390.00;5033651;28;20003;-83
2023/09/16 06:41:55;;;;;;;;;;;;;;;8.44;100.00;99378.53;5033738;28;20007;-84
2023/09/16 06:44:20;;;;;;;;;;;;;;;8.40;100.00;99388.31;5033431;28;19924;-86
2023/09/16 06:46:46;;;;;;;;;;;;;;;8.45;100.00;99394.31;5033610;28;19932;-83
2023/09/16 06:49:12;;;;;;;;;;;;;;;8.49;100.00;99393.28;5033295;28;19948;-83
2023/09/16 06:51:37;;;;;;;;;;;;;;;8.50;100.00;99388.84;5032066;28;19917;-83
2023/09/16 06:54:02;;;;;;;;;;;;;;;8.51;100.00;99390.56;5033504;28;20376;-83
2023/09/16 06:56:29;;;;;;;;;;;;;;;8.50;100.00;99396.75;5033295;28;19913;-83
2023/09/16 06:58:56;;;;;;;;;;;;;;;8.56;100.00;99403.59;5033462;28;19928;-83
2023/09/16 07:01:22;;;;;;;;;;;;;;;8.53;100.00;99410.69;5033194;28;19917;-83
2023/09/16 07:03:47;;;;;;;;;;;;;;;8.56;100.00;99406.22;5033068;28;20418;-83
2023/09/16 07:06:12;;;;;;;;;;;;;;;8.54;100.00;99406.28;5031614;28;20557;-83
2023/09/16 07:08:38;;;;;;;;;;;;;;;8.57;100.00;99407.94;5033184;28;20280;-83
2023/09/16 07:11:03;;;;;;;;;;;;;;;8.59;100.00;99406.09;5033365;28;20027;-83
2023/09/16 07:13:28;;;;;;;;;;;;;;;8.57;100.00;99406.16;5033044;28;19917;-83
2023/09/16 07:51:55;;;;;;;;;;;;;;;6.34;100.00;99407.97;5139429;23;20441;-87
2023/09/16 07:54:22;;;;;;;;;;;;;;;6.31;100.00;99408.06;5011586;28;20010;-85
2023/09/16 07:56:47;;;;;;;;;;;;;;;6.28;100.00;99413.41;5010871;28;20323;-82
2023/09/16 07:59:17;;;;;;;;;;;;;;;6.18;100.00;99417.25;5012452;28;19948;-82
2023/09/16 08:01:43;;;;;;;;;;;;;;;6.19;100.00;99421.63;5012490;28;20043;-82
2023/09/16 08:04:08;;;;;;;;;;;;;;;6.14;100.00;99437.53;5010656;28;19945;-81
2023/09/16 08:06:33;;;;;;;;;;;;;;;6.17;100.00;99440.06;5009554;28;20265;-82
2023/09/16 08:08:59;;;;;;;;;;;;;;;6.20;100.00;99446.13;5012493;28;19925;-81
2023/09/16 08:11:24;;;;;;;;;;;;;;;6.14;100.00;99452.44;5012323;28;19917;-81
2023/09/16 08:13:51;;;;;;;;;;;;;;;6.17;100.00;99452.34;5012390;28;19928;-81
2023/09/16 08:16:16;;;;;;;;;;;;;;;6.02;100.00;99458.09;5012389;28;19920;-81
2023/09/16 08:18:41;;;;;;;;;;;;;;;6.03;100.00;99465.03;5011614;28;19917;-82
2023/09/16 08:21:06;;;;;;;;;;;;;;;6.02;100.00;99468.59;5010268;28;19920;-81
2023/09/16 08:23:32;;;;;;;;;;;;;;;5.95;100.00;99463.47;5012219;28;19921;-81
2023/09/16 08:25:57;;;;;;;;;;;;;;;6.23;100.00;99461.84;5012311;28;19925;-81
2023/09/16 08:28:24;;;;;;;;;;;;;;;6.59;100.00;99449.31;5012213;28;20288;-82
2023/09/16 08:30:50;;;;;;;;;;;;;;;6.72;100.00;99463.78;5010204;28;19922;-83
2023/09/16 08:33:16;;;;;;;;;;;;;;;6.83;100.00;99466.09;5012135;28;19914;-82
2023/09/16 08:35:41;;;;;;;;;;;;;;;6.85;100.00;99461.63;5008935;28;19922;-81
2023/09/16 08:38:13;;;;;;;;;;;;;;;6.90;100.00;99464.09;5011078;28;19960;-82
2023/09/16 08:41:04;;;;;;;;;;;;;;;6.96;100.00;99463.91;5012282;28;20280;-84
2023/09/16 08:43:34;;;;;;;;;;;;;;;6.89;100.00;99462.38;5008200;28;20016;-80
2023/09/16 08:46:00;;;;;;;;;;;;;;;6.81;100.00;99469.66;5012076;28;20008;-81
2023/09/16 08:48:26;;;;;;;;;;;;;;;6.72;100.00;99461.16;5009778;28;19945;-88
2023/09/16 08:50:53;;;;;;;;;;;;;;;6.58;100.00;99463.38;5008897;28;19921;-82
2023/09/16 08:53:19;;;;;;;;;;;;;;;6.48;100.00;99461.94;5011075;28;19949;-83
2023/09/16 08:55:44;;;;;;;;;;;;;;;6.46;100.00;99459.38;5010720;28;19968;-83
2023/09/16 08:58:10;;;;;;;;;;;;;;;6.55;100.00;99448.53;5010003;28;19972;-83
2023/09/16 09:00:36;;;;;;;;;;;;;;;6.44;100.00;99450.63;5010100;28;19929;-83
2023/09/16 09:03:01;;;;;;;;;;;;;;;6.33;100.00;99448.34;5011913;28;19921;-83
2023/09/16 09:05:27;;;;;;;;;;;;;;;6.42;100.00;99448.97;5009218;28;19922;-81
2023/09/16 09:07:53;;;;;;;;;;;;;;;6.44;100.00;99444.50;5010985;28;19917;-80
2023/09/16 09:10:18;;;;;;;;;;;;;;;6.40;100.00;99442.88;5010731;28;19969;-82
2023/09/16 09:12:44;;;;;;;;;;;;;;;6.39;100.00;99438.53;5010511;28;19965;-83
2023/09/16 09:15:13;;;;;;;;;;;;;;;6.50;100.00;99444.31;5011766;28;19925;-86
2023/09/16 09:17:54;;;;;;;;;;;;;;;6.43;100.00;99448.03;5011090;28;19978;-83
2023/09/16 09:20:20;;;;;;;;;;;;;;;6.42;100.00;99443.72;5009087;28;20285;-83
2023/09/16 09:22:47;;;;;;;;;;;;;;;6.47;100.00;99449.69;5011107;28;19932;-83
2023/09/16 09:25:12;;;;;;;;;;;;;;;6.53;100.00;99454.75;5011605;28;19971;-83
2023/09/16 09:27:37;;;;;;;;;;;;;;;6.65;100.00;99462.28;5026887;28;19922;-83
2023/09/16 09:30:04;;;;;;;;;;;;;;;6.88;100.00;99465.94;5011779;28;19922;-80
2023/09/16 09:32:31;;;;;;;;;;;;;;;7.15;100.00;99452.72;5013861;28;19925;-81
2023/09/16 09:34:57;;;;;;;;;;;;;;;6.92;100.00;99457.00;5013798;28;19956;-81
2023/09/16 09:37:22;;;;;;;;;;;;;;;6.82;100.00;99461.72;5014795;28;19961;-82
2023/09/16 09:40:04;;;;;;;;;;;;;;;6.75;100.00;99456.69;5013281;28;19925;-84
2023/09/16 09:42:29;;;;;;;;;;;;;;;6.72;100.00;99461.16;5013336;28;19952;-83
2023/09/16 09:45:02;;;;;;;;;;;;;;;6.80;100.00;99462.69;5013046;28;20364;-81
2023/09/16 09:47:27;;;;;;;;;;;;;;;6.78;100.00;99464.50;5014387;28;19983;-81
2023/09/16 09:49:52;;;;;;;;;;;;;;;6.75;100.00;99468.09;5013645;28;20008;-81
2023/09/16 09:52:18;;;;;;;;;;;;;;;6.76;100.00;99472.44;5012590;28;19932;-81
2023/09/16 09:54:44;;;;;;;;;;;;;;;6.72;100.00;99476.09;5014871;28;19918;-80
2023/09/16 09:57:09;;;;;;;;;;;;;;;6.71;100.00;99475.22;5014009;28;19925;-81
2023/09/16 09:59:35;;;;;;;;;;;;;;;6.76;100.00;99479.50;5014821;28;20004;-80
2023/09/16 10:02:03;;;;;;;;;;;;;;;6.73;100.00;99483.06;5013881;28;19921;-84
2023/09/16 10:04:29;;;;;;;;;;;;;;;6.68;100.00;99483.22;5012505;28;19979;-83
2023/09/16 10:06:55;;;;;;;;;;;;;;;6.66;100.00;99479.78;5012120;28;19957;-81
2023/09/16 10:09:20;;;;;;;;;;;;;;;6.71;100.00;99474.38;5014476;28;19956;-81
2023/09/16 10:11:45;;;;;;;;;;;;;;;6.73;100.00;99483.06;5012782;28;19925;-81
2023/09/16 10:14:11;;;;;;;;;;;;;;;6.77;100.00;99475.97;5014437;28;20349;-81
2023/09/16 10:16:37;;;;;;;;;;;;;;;6.78;100.00;99475.03;5014328;28;19921;-81
2023/09/16 10:19:02;;;;;;;;;;;;;;;6.77;100.00;99474.19;5013662;28;20455;-81
2023/09/16 10:21:27;;;;;;;;;;;;;;;6.92;100.00;99483.34;5011001;28;19926;-81
2023/09/16 10:23:53;;;;;;;;;;;;;;;6.92;100.00;99478.06;5014123;28;20328;-81
2023/09/16 10:26:18;;;;;;;;;;;;;;;6.98;100.00;99475.25;5012374;28;19925;-81
2023/09/16 10:28:46;;;;;;;;;;;;;;;7.05;100.00;99468.88;5013431;28;20008;-82
2023/09/16 10:31:12;;;;;;;;;;;;;;;7.08;100.00;99479.31;5012912;28;20015;-81
2023/09/16 10:33:39;;;;;;;;;;;;;;;7.08;100.00;99479.31;5011843;28;20047;-81
2023/09/16 10:36:05;;;;;;;;;;;;;;;7.11;100.00;99472.22;5027901;28;20387;-81
2023/09/16 10:38:33;;;;;;;;;;;;;;;7.09;100.00;99475.75;5013925;28;20282;-81
2023/09/16 10:41:01;;;;;;;;;;;;;;;7.14;100.00;99472.97;5011686;28;19936;-84
2023/09/16 10:43:27;;;;;;;;;;;;;;;7.14;100.00;99464.19;5012193;28;19921;-84
2023/09/16 10:45:52;;;;;;;;;;;;;;;7.15;100.00;99463.28;5012643;28;19924;-81
2023/09/16 10:48:18;;;;;;;;;;;;;;;7.14;100.00;99464.19;5013797;28;19917;-80
2023/09/16 10:50:44;;;;;;;;;;;;;;;7.07;100.00;99461.78;5012036;28;20327;-82
2023/09/16 10:53:15;;;;;;;;;;;;;;;7.01;100.00;99461.13;5012285;28;20400;-81
2023/09/16 10:55:58;;;;;;;;;;;;;;;7.00;100.00;99454.97;5010508;28;20372;-85
2023/09/16 10:58:31;;;;;;;;;;;;;;;7.01;100.00;99448.81;5013582;28;19928;-81
2023/09/16 11:00:57;;;;;;;;;;;;;;;7.01;100.00;99445.31;5011529;28;19922;-80
2023/09/16 11:03:33;;;;;;;;;;;;;;;7.02;100.00;99447.91;5013412;28;19928;-81
2023/09/16 11:06:00;;;;;;;;;;;;;;;7.05;100.00;99447.78;5012418;28;19918;-81
2023/09/16 11:08:25;;;;;;;;;;;;;;;7.04;100.00;99453.97;5013387;28;19917;-81
2023/09/16 11:10:51;;;;;;;;;;;;;;;7.07;100.00;99445.13;5012069;28;19918;-81
2023/09/16 11:13:16;;;;;;;;;;;;;;;7.12;100.00;99447.59;5011999;28;19922;-81
2023/09/16 11:15:41;;;;;;;;;;;;;;;7.09;100.00;99444.13;5011501;28;19971;-82
2023/09/16 11:18:10;;;;;;;;;;;;;;;7.14;100.00;99443.13;5007516;28;20343;-81
2023/09/16 11:20:36;;;;;;;;;;;;;;;7.21;100.00;99436.72;5010672;28;20297;-81
2023/09/16 11:23:05;;;;;;;;;;;;;;;7.24;100.00;99442.75;5012332;28;19932;-81
2023/09/16 11:25:35;;;;;;;;;;;;;;;7.22;100.00;99428.75;5012787;28;19917;-81
2023/09/16 11:28:02;;;;;;;;;;;;;;;7.24;100.00;99426.06;5012232;28;19928;-81
2023/09/16 11:30:30;;;;;;;;;;;;;;;7.30;100.00;99430.28;5010457;28;19948;-81
2023/09/16 11:32:55;;;;;;;;;;;;;;;7.27;100.00;99421.56;5011757;28;19928;-80
2023/09/16 11:35:20;;;;;;;;;;;;;;;7.26;100.00;99413.72;5026598;28;19917;-80
2023/09/16 11:37:45;;;;;;;;;;;;;;;7.29;100.00;99418.84;5012170;28;19925;-81
2023/09/16 11:40:11;;;;;;;;;;;;;;;7.34;100.00;99414.31;5011584;28;20324;-80
2023/09/16 11:42:36;;;;;;;;;;;;;;;7.28;100.00;99410.09;5010183;28;19965;-81
2023/09/16 11:45:02;;;;;;;;;;;;;;;7.32;100.00;99413.47;5012054;28;19921;-82
2023/09/16 11:47:29;;;;;;;;;;;;;;;7.30;100.00;99409.19;5010325;28;19928;-81
2023/09/16 11:49:55;;;;;;;;;;;;;;;7.38;100.00;99410.63;5010320;28;19920;-81
2023/09/16 11:52:20;;;;;;;;;;;;;;;7.30;100.00;99407.41;5011172;28;19922;-78
2023/09/16 11:54:47;;;;;;;;;;;;;;;7.33;100.00;99404.66;5010790;28;19925;-80
2023/09/16 11:57:12;;;;;;;;;;;;;;;7.35;100.00;99401.97;5012693;28;19918;-81
2023/09/16 11:59:38;;;;;;;;;;;;;;;7.39;100.00;99403.59;5011945;28;19975;-81
2023/09/16 12:02:05;;;;;;;;;;;;;;;7.41;100.00;99396.50;5011304;28;20012;-81
2023/09/16 12:04:34;;;;;;;;;;;;;;;7.41;100.00;99397.34;5012514;28;19969;-92
2023/09/16 12:07:00;;;;;;;;;;;;;;;7.45;100.00;99403.34;5008921;28;20438;-82
2023/09/16 12:09:25;;;;;;;;;;;;;;;7.42;100.00;99392.94;5008214;28;19917;-80
2023/09/16 12:11:51;;;;;;;;;;;;;;;7.46;100.00;99384.84;5009833;28;20361;-80
2023/09/16 12:14:16;;;;;;;;;;;;;;;7.48;100.00;99387.41;5012565;28;19959;-80
2023/09/16 12:16:42;;;;;;;;;;;;;;;7.45;100.00;99382.25;5012232;28;19925;-80
2023/09/16 12:19:08;;;;;;;;;;;;;;;7.45;100.00;99385.78;5011209;28;19932;-80
2023/09/16 12:21:33;;;;;;;;;;;;;;;7.48;100.00;99386.56;5007928;28;19926;-80
2023/09/16 12:23:59;;;;;;;;;;;;;;;7.45;100.00;99384.91;5012100;28;19926;-80
2023/09/16 12:26:24;;;;;;;;;;;;;;;7.47;100.00;99380.44;5010966;28;19997;-80
2023/09/16 12:28:49;;;;;;;;;;;;;;;7.51;100.00;99368.00;5012279;28;19924;-80
2023/09/16 12:31:20;;;;;;;;;;;;;;;7.52;100.00;99372.38;5027127;28;20365;-80
2023/09/16 12:33:48;;;;;;;;;;;;;;;7.55;100.00;99370.47;5009562;28;19924;-81
2023/09/16 12:36:17;;;;;;;;;;;;;;;7.57;100.00;99373.06;5008892;28;19921;-81
2023/09/16 12:38:43;;;;;;;;;;;;;;;7.51;100.00;99382.03;5012067;28;19924;-80
2023/09/16 12:41:09;;;;;;;;;;;;;;;7.57;100.00;99373.06;5026442;28;20004;-80
2023/09/16 12:43:35;;;;;;;;;;;;;;;7.54;100.00;99373.16;5011050;28;19925;-81
2023/09/16 12:46:01;;;;;;;;;;;;;;;7.51;100.00;99371.50;5010623;28;19922;-81
2023/09/16 12:48:27;;;;;;;;;;;;;;;7.51;100.00;99368.00;5011135;28;19921;-81
2023/09/16 12:50:53;;;;;;;;;;;;;;;7.51;100.00;99378.56;5010741;28;19947;-80
2023/09/16 12:53:18;;;;;;;;;;;;;;;7.50;100.00;99374.19;5011147;28;19925;-81
2023/09/16 12:55:46;;;;;;;;;;;;;;;7.53;100.00;99374.06;5006191;28;19917;-81
2023/09/16 12:58:14;;;;;;;;;;;;;;;7.51;100.00;99374.13;5010622;28;19929;-81
2023/09/16 13:00:39;;;;;;;;;;;;;;;7.49;100.00;99380.41;5010008;28;19933;-83
2023/09/16 13:03:04;;;;;;;;;;;;;;;7.55;100.00;99383.66;5010760;28;19922;-80
2023/09/16 13:05:30;;;;;;;;;;;;;;;7.54;100.00;99381.09;5012617;28;19976;-80
2023/09/16 13:07:57;;;;;;;;;;;;;;;7.56;100.00;99384.50;5014729;28;20047;-81
2023/09/16 13:10:23;;;;;;;;;;;;;;;7.57;100.00;99386.25;5015695;28;20381;-81
2023/09/16 13:12:48;;;;;;;;;;;;;;;7.58;100.00;99387.97;5015554;28;19961;-80
2023/09/16 13:15:15;;;;;;;;;;;;;;;7.57;100.00;99392.38;5015097;28;19972;-80
2023/09/16 13:17:43;;;;;;;;;;;;;;;7.66;100.00;99396.47;5015121;28;20284;-80
2023/09/16 13:20:15;;;;;;;;;;;;;;;7.63;100.00;99383.38;5012713;28;19960;-80
2023/09/16 13:22:44;;;;;;;;;;;;;;;7.52;100.00;99385.56;5011443;28;19968;-80
2023/09/16 13:25:29;;;;;;;;;;;;;;;7.60;100.00;99380.84;5013985;28;19921;-81
2023/09/16 13:27:54;;;;;;;;;;;;;;;7.54;100.00;99378.44;5013735;28;20383;-81
2023/09/16 13:30:21;;;;;;;;;;;;;;;7.53;100.00;99368.81;5014228;28;19956;-80
2023/09/16 13:32:51;;;;;;;;;;;;;;;7.51;100.00;99368.00;5013739;28;19948;-80
2023/09/16 13:35:17;;;;;;;;;;;;;;;7.58;100.00;99366.88;5013122;28;19936;-80
2023/09/16 13:37:42;;;;;;;;;;;;;;;7.60;100.00;99373.78;5015056;28;20428;-80
2023/09/16 13:40:09;;;;;;;;;;;;;;;7.59;100.00;99369.44;5013349;28;19926;-80
2023/09/16 13:42:35;;;;;;;;;;;;;;;7.55;100.00;99364.34;5013740;28;19927;-80
2023/09/16 13:45:02;;;;;;;;;;;;;;;7.58;100.00;99366.88;5007197;28;19930;-80
2023/09/16 13:47:27;;;;;;;;;;;;;;;7.57;100.00;99366.00;5014864;28;19922;-81
2023/09/16 13:49:52;;;;;;;;;;;;;;;7.64;100.00;99369.25;5012600;28;19924;-80
2023/09/16 13:52:18;;;;;;;;;;;;;;;7.66;100.00;99370.09;5014754;28;20360;-80
2023/09/16 13:54:43;;;;;;;;;;;;;;;7.65;100.00;99371.00;5014408;28;20573;-81
2023/09/16 13:57:08;;;;;;;;;;;;;;;7.69;100.00;99364.69;5013558;28;19918;-79
2023/09/16 13:59:34;;;;;;;;;;;;;;;7.66;100.00;99363.94;5014218;28;19917;-81
2023/09/16 14:01:59;;;;;;;;;;;;;;;7.68;100.00;99373.53;5013259;28;20008;-84
2023/09/16 14:04:24;;;;;;;;;;;;;;;7.70;100.00;99371.66;5013387;28;19917;-81
2023/09/16 14:06:49;;;;;;;;;;;;;;;7.69;100.00;99384.91;5011054;28;19918;-81
2023/09/16 14:09:14;;;;;;;;;;;;;;;7.70;100.00;99386.66;5013327;28;20000;-81
2023/09/16 14:11:40;;;;;;;;;;;;;;;7.63;100.00;99391.28;5013151;28;19968;-81
2023/09/16 14:14:05;;;;;;;;;;;;;;;7.68;100.00;99383.22;5008625;28;19926;-81
2023/09/16 14:16:30;;;;;;;;;;;;;;;7.70;100.00;99382.22;5012431;28;20392;-85
2023/09/16 14:18:57;;;;;;;;;;;;;;;7.72;100.00;99377.78;5012351;28;20807;-81
2023/09/16 14:21:23;;;;;;;;;;;;;;;7.68;100.00;99381.44;5013255;28;20004;-81
2023/09/16 14:23:48;;;;;;;;;;;;;;;7.70;100.00;99369.03;5013248;28;20060;-80
2023/09/16 14:26:13;;;;;;;;;;;;;;;7.78;100.00;99374.03;5014291;28;19921;-80
2023/09/16 14:28:39;;;;;;;;;;;;;;;7.75;100.00;99369.72;5029295;28;19928;-80
2023/09/16 14:31:05;;;;;;;;;;;;;;;7.77;100.00;99381.09;5026715;28;20000;-85
2023/09/16 14:33:30;;;;;;;;;;;;;;;7.79;100.00;99386.31;5012661;28;20292;-81
2023/09/16 14:35:55;;;;;;;;;;;;;;;7.79;100.00;99381.88;5011773;28;20007;-81
2023/09/16 14:38:21;;;;;;;;;;;;;;;7.81;100.00;99393.22;5012075;28;19926;-82
2023/09/16 14:40:46;;;;;;;;;;;;;;;7.85;100.00;99396.63;5011727;28;19919;-85
2023/09/16 14:43:11;;;;;;;;;;;;;;;7.88;100.00;99396.50;5012587;28;19921;-85
2023/09/16 14:45:37;;;;;;;;;;;;;;;7.87;100.00;99405.34;5027657;28;19921;-84
2023/09/16 14:48:03;;;;;;;;;;;;;;;7.92;100.00;99406.00;5011575;28;19922;-81
2023/09/16 14:50:28;;;;;;;;;;;;;;;7.96;100.00;99401.47;5012647;28;19921;-81
2023/09/16 14:52:53;;;;;;;;;;;;;;;7.95;100.00;99397.13;5011600;28;19976;-81
2023/09/16 14:55:19;;;;;;;;;;;;;;;7.91;100.00;99395.53;5007290;28;19930;-81
2023/09/16 14:57:45;;;;;;;;;;;;;;;7.92;100.00;99399.88;5012275;28;19918;-82
2023/09/16 15:00:10;;;;;;;;;;;;;;;7.95;100.00;99392.72;5011646;28;20372;-81
2023/09/16 15:02:36;;;;;;;;;;;;;;;7.95;100.00;99391.84;5012631;28;19928;-81
2023/09/16 15:05:01;;;;;;;;;;;;;;;7.94;100.00;99396.25;5012256;28;19965;-81
2023/09/16 15:07:27;;;;;;;;;;;;;;;7.96;100.00;99389.16;5011359;28;19922;-82
2023/09/16 15:09:52;;;;;;;;;;;;;;;7.95;100.00;99376.88;5010697;28;19945;-81
2023/09/16 15:12:18;;;;;;;;;;;;;;;7.94;100.00;99384.84;5006910;28;19929;-82
2023/09/16 15:14:44;;;;;;;;;;;;;;;8.03;100.00;99366.03;5012408;28;20292;-81
2023/09/16 15:17:09;;;;;;;;;;;;;;;7.82;100.00;99362.47;5011210;28;20284;-81
2023/09/16 15:19:34;;;;;;;;;;;;;;;7.84;100.00;99357.13;5006917;28;19932;-83
2023/09/16 15:22:00;;;;;;;;;;;;;;;7.86;100.00;99352.63;5010221;28;19921;-81
2023/09/16 15:24:25;;;;;;;;;;;;;;;7.89;100.00;99344.59;5027233;28;19929;-80
2023/09/16 15:26:53;;;;;;;;;;;;;;;7.96;100.00;99341.69;5011199;28;20024;-85
2023/09/16 15:29:19;;;;;;;;;;;;;;;7.91;100.00;99345.41;5007166;28;19925;-80
2023/09/16 15:31:45;;;;;;;;;;;;;;;7.96;100.00;99335.50;5012003;28;19926;-85
2023/09/16 15:34:10;;;;;;;;;;;;;;;7.89;100.00;99337.53;5013041;28;20339;-81
2023/09/16 15:36:35;;;;;;;;;;;;;;;7.69;100.00;99326.91;5006009;28;19925;-85
2023/09/16 15:39:00;;;;;;;;;;;;;;;7.60;100.00;99333.41;5011508;28;19926;-83
2023/09/16 15:41:26;;;;;;;;;;;;;;;7.59;100.00;99323.75;5010413;28;20012;-81
2023/09/16 15:43:51;;;;;;;;;;;;;;;7.64;100.00;99320.03;5012518;28;19917;-81
2023/09/16 15:46:16;;;;;;;;;;;;;;;7.70;100.00;99324.19;5011515;28;19928;-81
2023/09/16 15:48:41;;;;;;;;;;;;;;;7.67;100.00;99326.09;5012736;28;19979;-83
2023/09/16 15:51:07;;;;;;;;;;;;;;;7.71;100.00;99333.00;5011342;28;19999;-83
2023/09/16 15:53:33;;;;;;;;;;;;;;;7.75;100.00;99327.50;5012798;28;19917;-84
2023/09/16 15:55:58;;;;;;;;;;;;;;;7.77;100.00;99325.69;5011173;28;20044;-81
2023/09/16 15:58:24;;;;;;;;;;;;;;;7.78;100.00;99329.19;5011386;28;19991;-81
2023/09/16 16:00:51;;;;;;;;;;;;;;;7.78;100.00;99332.69;5012386;28;19929;-80
2023/09/16 16:03:18;;;;;;;;;;;;;;;7.77;100.00;99325.69;5011267;28;20432;-85
2023/09/16 16:05:43;;;;;;;;;;;;;;;7.81;100.00;99324.66;5010006;28;19918;-79
2023/09/16 16:08:09;;;;;;;;;;;;;;;7.65;100.00;99318.25;5011207;28;19924;-81
2023/09/16 16:10:35;;;;;;;;;;;;;;;7.70;100.00;99324.19;5012474;28;20367;-80
2023/09/16 16:13:00;;;;;;;;;;;;;;;7.78;100.00;99319.50;5012233;28;20024;-80
2023/09/16 16:15:26;;;;;;;;;;;;;;;7.81;100.00;99319.38;5012280;28;20495;-80
2023/09/16 16:17:53;;;;;;;;;;;;;;;7.82;100.00;99321.09;5012101;28;19963;-81
2023/09/16 16:20:19;;;;;;;;;;;;;;;7.79;100.00;99318.59;5011302;28;20027;-80
2023/09/16 16:22:44;;;;;;;;;;;;;;;7.70;100.00;99313.66;5011591;28;20377;-84
2023/09/16 16:25:09;;;;;;;;;;;;;;;7.68;100.00;99309.38;5012042;28;19918;-81
2023/09/16 16:27:35;;;;;;;;;;;;;;;7.76;100.00;99312.56;5012401;28;19945;-81
2023/09/16 16:30:04;;;;;;;;;;;;;;;7.81;100.00;99314.09;5012071;28;19952;-83
2023/09/16 16:32:29;;;;;;;;;;;;;;;7.83;100.00;99314.03;5012229;28;20420;-86
2023/09/16 16:34:54;;;;;;;;;;;;;;;7.81;100.00;99318.53;5010970;28;19922;-81
2023/09/16 16:37:20;;;;;;;;;;;;;;;7.80;100.00;99325.59;5012228;28;19921;-81
2023/09/16 16:39:45;;;;;;;;;;;;;;;7.84;100.00;99314.91;5013101;28;19925;-87
2023/09/16 16:42:10;;;;;;;;;;;;;;;7.86;100.00;99318.34;5014755;28;19917;-80
2023/09/16 16:44:35;;;;;;;;;;;;;;;7.86;100.00;99316.56;5016208;28;19918;-80
2023/09/16 16:47:02;;;;;;;;;;;;;;;7.84;100.00;99315.75;5015954;28;20351;-80
2023/09/16 16:49:28;;;;;;;;;;;;;;;7.85;100.00;99320.13;5014919;28;19920;-80
2023/09/16 16:51:54;;;;;;;;;;;;;;;7.84;100.00;99320.19;5013309;28;19922;-79
2023/09/16 16:54:19;;;;;;;;;;;;;;;7.89;100.00;99318.22;5016133;28;19921;-83
2023/09/16 16:56:44;;;;;;;;;;;;;;;7.88;100.00;99322.66;5015929;28;19971;-81
2023/09/16 16:59:09;;;;;;;;;;;;;;;7.90;100.00;99320.81;5014503;28;19922;-81
2023/09/16 17:01:35;;;;;;;;;;;;;;;7.97;100.00;99318.78;5030690;28;19921;-80
2023/09/16 17:04:03;;;;;;;;;;;;;;;7.90;100.00;99330.50;5015694;28;19941;-81
2023/09/16 17:06:28;;;;;;;;;;;;;;;7.92;100.00;99328.66;5014768;28;19918;-81
2023/09/16 17:08:54;;;;;;;;;;;;;;;7.94;100.00;99327.66;5015537;28;19936;-81
2023/09/16 17:11:19;;;;;;;;;;;;;;;7.93;100.00;99327.72;5010213;28;20316;-81
2023/09/16 17:13:44;;;;;;;;;;;;;;;7.97;100.00;99331.97;5015702;28;19913;-81
2023/09/16 17:16:10;;;;;;;;;;;;;;;7.94;100.00;99337.38;5015435;28;19921;-81
2023/09/16 17:18:35;;;;;;;;;;;;;;;7.97;100.00;99334.59;5014213;28;19921;-82
2023/09/16 17:21:00;;;;;;;;;;;;;;;7.97;100.00;99327.53;5013056;28;19964;-84
2023/09/16 17:23:26;;;;;;;;;;;;;;;7.95;100.00;99329.41;5015484;28;19922;-81
2023/09/16 17:25:51;;;;;;;;;;;;;;;7.95;100.00;99334.66;5015380;28;19921;-81
2023/09/16 17:28:24;;;;;;;;;;;;;;;8.00;100.00;99322.16;5013949;28;19917;-81
2023/09/16 17:30:49;;;;;;;;;;;;;;;8.03;100.00;99322.97;5014472;28;19918;-81
2023/09/16 17:33:15;;;;;;;;;;;;;;;8.06;100.00;99325.44;5013547;28;19924;-83
2023/09/16 17:35:40;;;;;;;;;;;;;;;8.01;100.00;99325.66;5012493;28;19928;-84
2023/09/16 17:38:06;;;;;;;;;;;;;;;7.97;100.00;99329.34;5014804;28;19967;-81
2023/09/16 17:40:31;;;;;;;;;;;;;;;8.02;100.00;99329.16;5015198;28;19929;-81
2023/09/16 17:42:56;;;;;;;;;;;;;;;8.03;100.00;99325.59;5015022;28;19921;-81
2023/09/16 17:45:21;;;;;;;;;;;;;;;8.12;100.00;99323.47;5014921;28;19922;-81
2023/09/16 17:47:47;;;;;;;;;;;;;;;8.02;100.00;99323.88;5014923;28;19917;-81
2023/09/16 17:50:12;;;;;;;;;;;;;;;8.00;100.00;99323.94;5013605;28;19921;-84
2023/09/16 17:52:37;;;;;;;;;;;;;;;7.96;100.00;99322.31;5014666;28;19928;-82
2023/09/16 17:55:03;;;;;;;;;;;;;;;8.00;100.00;99329.22;5013352;28;20277;-81
2023/09/16 17:57:28;;;;;;;;;;;;;;;8.00;100.00;99323.94;5013570;28;19959;-83
2023/09/16 17:59:54;;;;;;;;;;;;;;;8.03;100.00;99329.09;5029777;28;19922;-82
2023/09/16 18:02:19;;;;;;;;;;;;;;;8.04;100.00;99324.66;5014904;28;19925;-81
2023/09/16 18:04:44;;;;;;;;;;;;;;;8.07;100.00;99328.03;5014571;28;19922;-87
2023/09/16 18:07:11;;;;;;;;;;;;;;;8.12;100.00;99323.47;5012166;28;19917;-81
2023/09/16 18:09:36;;;;;;;;;;;;;;;8.12;100.00;99335.78;5014597;28;20036;-84
2023/09/16 18:12:01;;;;;;;;;;;;;;;8.13;100.00;99337.50;5014468;28;20008;-82
2023/09/16 18:14:27;;;;;;;;;;;;;;;8.09;100.00;99339.41;5014424;28;20281;-81
2023/09/16 18:16:52;;;;;;;;;;;;;;;8.13;100.00;99342.78;5014410;28;19918;-81
2023/09/16 18:19:17;;;;;;;;;;;;;;;8.10;100.00;99337.63;5014127;28;19921;-81
2023/09/16 18:21:42;;;;;;;;;;;;;;;8.11;100.00;99342.00;5012815;28;20281;-81
2023/09/16 18:24:08;;;;;;;;;;;;;;;8.12;100.00;99346.31;5014091;28;20354;-80
2023/09/16 18:26:33;;;;;;;;;;;;;;;8.12;100.00;99355.13;5014299;28;19917;-82